createdAt,value
2023-04-21T00:02:22.626Z,25.30
2023-04-21T00:04:50.012Z,23.30
2023-04-21T00:07:16.880Z,25.58
2023-04-21T00:09:44.594Z,26.90
2023-04-21T00:12:11.299Z,27.02
2023-04-21T00:14:39.880Z,26.17
2023-04-21T00:17:06.436Z,25.15
2023-04-21T00:19:33.820Z,28.20
2023-04-21T00:22:01.258Z,27.30
2023-04-21T00:24:27.908Z,29.58
2023-04-21T00:26:54.493Z,30.40
2023-04-21T00:29:21.308Z,32.53
2023-04-21T00:31:48.389Z,32.83
2023-04-21T00:34:15.201Z,29.83
2023-04-21T00:36:41.755Z,30.33
2023-04-21T00:39:08.302Z,29.00
2023-04-21T00:41:37.126Z,29.65
2023-04-21T00:44:08.466Z,26.42
2023-04-21T00:46:36.501Z,33.45
2023-04-21T00:49:07.833Z,28.77
2023-04-21T00:51:36.986Z,29.52
2023-04-21T00:54:09.312Z,30.55
2023-04-21T00:56:37.021Z,34.85
2023-04-21T00:59:04.063Z,33.88
2023-04-21T01:01:37.259Z,35.22
2023-04-21T01:04:05.279Z,29.73
2023-04-21T01:06:34.225Z,33.80
2023-04-21T01:09:01.502Z,33.00
2023-04-21T01:11:28.288Z,32.15
2023-04-21T01:13:55.733Z,34.47
2023-04-21T01:16:24.502Z,36.63
2023-04-21T01:18:53.935Z,37.25
2023-04-21T01:21:22.065Z,39.25
2023-04-21T01:23:48.782Z,39.42
2023-04-21T01:26:19.236Z,38.88
2023-04-21T01:28:47.629Z,34.63
2023-04-21T01:31:16.115Z,37.80
2023-04-21T01:33:45.305Z,36.13
2023-04-21T01:36:12.439Z,34.95
2023-04-21T01:38:42.737Z,34.80
2023-04-21T01:41:10.714Z,37.53
2023-04-21T01:43:37.964Z,40.78
2023-04-21T01:46:05.720Z,35.55
2023-04-21T01:48:33.581Z,34.95
2023-04-21T01:51:00.239Z,43.63
2023-04-21T01:53:26.936Z,41.00
2023-04-21T01:55:53.756Z,38.90
2023-04-21T01:58:21.434Z,41.65
2023-04-21T02:00:48.253Z,36.88
2023-04-21T02:03:15.224Z,42.22
2023-04-21T02:05:42.009Z,42.70
2023-04-21T02:08:08.697Z,38.70
2023-04-21T02:10:35.278Z,37.30
2023-04-21T02:13:01.935Z,35.50
2023-04-21T02:15:29.665Z,45.67
2023-04-21T02:17:56.561Z,43.47
2023-04-21T02:20:25.395Z,37.47
2023-04-21T02:22:52.056Z,41.17
2023-04-21T02:25:20.057Z,41.58
2023-04-21T02:27:46.741Z,43.10
2023-04-21T02:30:13.634Z,47.75
2023-04-21T02:32:42.529Z,40.95
2023-04-21T02:35:10.684Z,42.15
2023-04-21T02:37:37.450Z,41.72
2023-04-21T02:40:05.659Z,44.47
2023-04-21T02:42:35.525Z,45.03
2023-04-21T02:45:02.325Z,44.10
2023-04-21T02:47:29.014Z,40.58
2023-04-21T02:49:58.090Z,45.03
2023-04-21T02:52:24.855Z,43.38
2023-04-21T02:54:56.100Z,44.13
2023-04-21T02:57:24.407Z,43.20
2023-04-21T02:59:51.447Z,45.30
2023-04-21T03:02:19.189Z,47.00
2023-04-21T03:04:45.908Z,44.90
2023-04-21T03:07:16.286Z,45.25
2023-04-21T03:09:42.948Z,48.45
2023-04-21T03:12:09.578Z,48.50
2023-04-21T03:14:36.341Z,44.78
2023-04-21T03:17:02.915Z,49.05
2023-04-21T03:19:31.166Z,48.58
2023-04-21T03:21:57.745Z,48.88
2023-04-21T03:24:24.906Z,45.92
2023-04-21T03:26:51.678Z,50.95
2023-04-21T03:29:18.573Z,53.60
2023-04-21T03:31:45.603Z,45.95
2023-04-21T03:34:13.279Z,47.30
2023-04-21T03:36:40.209Z,48.00
2023-04-21T03:39:19.210Z,49.45
2023-04-21T03:41:47.504Z,50.83
2023-04-21T03:44:14.213Z,45.88
2023-04-21T03:46:44.124Z,49.90
2023-04-21T03:49:10.775Z,48.97
2023-04-21T03:51:37.357Z,43.70
2023-04-21T03:54:04.071Z,50.65
2023-04-21T03:56:30.675Z,50.28
2023-04-21T03:58:58.333Z,46.92
2023-04-21T04:01:24.937Z,51.97
2023-04-21T04:03:51.678Z,49.10
2023-04-21T04:06:18.422Z,50.40
2023-04-21T04:08:45.156Z,50.13
2023-04-21T04:11:11.794Z,50.88
2023-04-21T04:13:38.464Z,50.97
2023-04-21T04:16:05.413Z,51.45
2023-04-21T04:18:32.145Z,57.03
2023-04-21T04:20:58.787Z,49.28
2023-04-21T04:23:26.071Z,52.05
2023-04-21T04:25:52.903Z,51.05
2023-04-21T04:28:19.605Z,53.50
2023-04-21T04:30:46.223Z,51.58
2023-04-21T04:33:12.897Z,51.10
2023-04-21T04:35:39.463Z,55.92
2023-04-21T04:38:07.567Z,60.45
2023-04-21T04:40:34.235Z,55.25
2023-04-21T04:43:02.613Z,56.25
2023-04-21T04:45:32.923Z,60.33
2023-04-21T04:48:00.100Z,56.47
2023-04-21T04:50:27.075Z,53.10
2023-04-21T04:52:53.761Z,60.75
2023-04-21T04:55:20.610Z,53.70
2023-04-21T04:57:47.235Z,64.45
2023-04-21T05:00:15.072Z,56.05
2023-04-21T05:02:42.963Z,53.22
2023-04-21T05:05:09.904Z,59.00
2023-04-21T05:07:36.944Z,61.25
2023-04-21T05:10:04.632Z,55.83
2023-04-21T05:12:34.592Z,55.55
2023-04-21T05:15:01.295Z,58.35
2023-04-21T05:17:28.674Z,57.10
2023-04-21T05:19:55.386Z,59.55
2023-04-21T05:22:22.155Z,57.13
2023-04-21T05:24:48.871Z,56.05
2023-04-21T05:27:15.641Z,57.45
2023-04-21T05:29:42.283Z,58.53
2023-04-21T05:32:09.269Z,56.78
2023-04-21T05:34:36.255Z,60.55
2023-04-21T05:37:03.002Z,61.40
2023-04-21T05:39:30.517Z,53.85
2023-04-21T05:41:57.215Z,55.45
2023-04-21T05:44:25.569Z,53.67
2023-04-21T05:46:52.342Z,55.33
2023-04-21T05:49:19.923Z,57.00
2023-04-21T05:51:46.727Z,53.95
2023-04-21T05:54:13.384Z,53.33
2023-04-21T05:56:40.073Z,55.75
2023-04-21T05:59:08.558Z,56.00
2023-04-21T06:01:36.267Z,58.45
2023-04-21T06:04:03.147Z,58.28
2023-04-21T06:06:30.512Z,57.28
2023-04-21T06:08:57.282Z,55.50
2023-04-21T06:11:24.943Z,57.88
2023-04-21T06:13:53.680Z,52.90
2023-04-21T06:16:20.679Z,50.83
2023-04-21T06:18:47.360Z,49.20
2023-04-21T06:21:14.008Z,49.25
2023-04-21T06:23:40.826Z,48.13
2023-04-21T06:26:07.791Z,45.97
2023-04-21T06:28:36.251Z,48.45
2023-04-21T06:31:06.221Z,44.63
2023-04-21T06:33:36.106Z,43.03
2023-04-21T06:36:02.910Z,41.42
2023-04-21T06:38:29.654Z,41.47
2023-04-21T06:40:56.313Z,41.22
2023-04-21T06:43:22.914Z,41.35
2023-04-21T06:45:49.590Z,42.33
2023-04-21T06:48:16.693Z,41.38
2023-04-21T06:50:44.652Z,43.78
2023-04-21T06:53:11.690Z,42.00
2023-04-21T06:55:38.321Z,38.22
2023-04-21T06:58:05.120Z,37.78
2023-04-21T07:00:32.879Z,36.00
2023-04-21T07:02:59.636Z,30.92
2023-04-21T07:05:27.395Z,31.10
2023-04-21T07:07:56.869Z,29.83
2023-04-21T07:10:24.715Z,27.98
2023-04-21T07:12:51.251Z,26.92
2023-04-21T07:15:18.101Z,27.90
2023-04-21T07:17:45.761Z,27.63
2023-04-21T07:20:13.196Z,24.90
2023-04-21T07:22:39.735Z,24.30
2023-04-21T07:25:07.169Z,24.40
2023-04-21T07:27:36.352Z,25.60
2023-04-21T07:30:07.352Z,24.85
2023-04-21T07:32:34.953Z,24.25
2023-04-21T07:35:02.719Z,24.63
2023-04-21T07:37:29.441Z,26.42
2023-04-21T07:39:56.084Z,24.77
2023-04-21T07:42:22.938Z,25.92
2023-04-21T07:44:49.754Z,28.55
2023-04-21T07:47:17.929Z,24.52
2023-04-21T07:49:45.672Z,24.95
2023-04-21T07:52:12.290Z,23.60
2023-04-21T07:54:40.002Z,25.50
2023-04-21T07:57:07.502Z,24.75
2023-04-21T07:59:35.129Z,22.65
2023-04-21T08:02:02.116Z,25.08
2023-04-21T08:04:28.916Z,23.52
2023-04-21T08:06:55.951Z,22.05
2023-04-21T08:09:23.722Z,23.17
2023-04-21T08:11:50.570Z,24.05
2023-04-21T08:14:17.319Z,24.63
2023-04-21T08:16:44.324Z,20.13
2023-04-21T08:19:11.370Z,21.20
2023-04-21T08:21:37.948Z,20.58
2023-04-21T08:24:04.829Z,21.38
2023-04-21T08:26:33.834Z,22.98
2023-04-21T08:29:03.475Z,23.48
2023-04-21T08:31:31.202Z,21.67
2023-04-21T08:34:01.979Z,21.75
2023-04-21T08:36:30.572Z,20.83
2023-04-21T08:38:58.238Z,21.95
2023-04-21T08:41:26.635Z,23.30
2023-04-21T09:01:19.137Z,26.60
2023-04-21T09:03:46.261Z,27.77
2023-04-21T09:06:13.474Z,27.58
2023-04-21T09:08:44.746Z,26.95
2023-04-21T09:11:14.402Z,28.67
2023-04-21T09:13:42.924Z,27.90
2023-04-21T09:16:18.410Z,27.27
2023-04-21T09:18:45.300Z,27.85
2023-04-21T09:21:18.003Z,27.48
2023-04-21T09:23:48.618Z,28.60
2023-04-21T09:26:17.659Z,25.55
2023-04-21T09:28:47.623Z,25.67
2023-04-21T09:31:24.560Z,23.10
2023-04-21T09:33:58.665Z,23.40
2023-04-21T09:36:29.944Z,23.48
2023-04-21T09:39:24.479Z,23.23
2023-04-21T09:41:47.182Z,22.55
2023-04-21T09:44:13.815Z,25.80
2023-04-21T09:46:44.572Z,24.55
2023-04-21T09:49:14.559Z,24.67
2023-04-21T09:52:10.489Z,23.70
2023-04-21T09:54:34.552Z,22.67
2023-04-21T09:57:04.557Z,21.67
2023-04-21T09:59:40.905Z,22.02
2023-04-21T10:02:09.541Z,20.95
2023-04-21T10:04:39.203Z,22.63
2023-04-21T10:07:07.529Z,23.73
2023-04-21T10:09:43.124Z,22.67
2023-04-21T10:12:11.330Z,22.52
2023-04-21T10:14:38.166Z,23.27
2023-04-21T10:17:10.144Z,22.17
2023-04-21T10:19:41.634Z,23.33
2023-04-21T10:22:09.745Z,22.95
2023-04-21T10:24:40.192Z,26.83
2023-04-21T10:27:13.026Z,22.85
2023-04-21T10:29:55.521Z,22.15
2023-04-21T10:32:43.229Z,22.92
2023-04-21T10:35:16.892Z,25.10
2023-04-21T10:37:43.846Z,22.88
2023-04-21T10:43:05.919Z,23.95
2023-04-21T10:45:32.752Z,23.88
2023-04-21T10:48:01.427Z,22.48
2023-04-21T10:50:30.380Z,22.95
2023-04-21T10:53:11.150Z,22.38
2023-04-21T10:55:38.938Z,23.63
2023-04-21T10:58:12.038Z,22.40
2023-04-21T11:00:39.286Z,24.40
2023-04-21T11:03:07.568Z,24.77
2023-04-21T11:05:41.835Z,21.58
2023-04-21T11:08:11.380Z,20.85
2023-04-21T11:10:55.429Z,20.35
2023-04-21T11:13:27.612Z,21.05
2023-04-21T11:16:02.535Z,21.45
2023-04-21T11:18:45.398Z,19.73
2023-04-21T11:21:13.729Z,19.23
2023-04-21T11:23:42.103Z,19.30
2023-04-21T11:26:08.759Z,19.00
2023-04-21T11:28:35.401Z,19.10
2023-04-21T11:31:02.151Z,19.60
2023-04-21T11:33:30.532Z,21.45
2023-04-21T11:35:58.999Z,21.02
2023-04-21T11:38:25.680Z,18.75
2023-04-21T11:40:52.330Z,20.98
2023-04-21T11:43:21.187Z,21.45
2023-04-21T11:45:51.514Z,20.50
2023-04-21T11:48:19.613Z,24.40
2023-04-21T11:50:50.358Z,19.92
2023-04-21T11:53:17.192Z,22.20
2023-04-21T11:55:45.777Z,22.00
2023-04-21T11:58:16.134Z,22.38
2023-04-21T12:00:46.353Z,21.02
2023-04-21T12:03:13.722Z,21.95
2023-04-21T12:05:40.609Z,23.33
2023-04-21T12:08:13.603Z,23.30
2023-04-21T12:10:45.487Z,23.88
2023-04-21T12:13:12.337Z,22.83
2023-04-21T12:15:39.008Z,22.42
2023-04-21T12:18:13.403Z,22.67
2023-04-21T12:20:49.149Z,23.05
2023-04-21T12:23:15.746Z,24.15
2023-04-21T12:25:43.325Z,23.77
2023-04-21T12:28:09.920Z,27.30
2023-04-21T12:30:39.359Z,25.35
2023-04-21T12:33:08.454Z,27.42
2023-04-21T12:35:35.618Z,26.02
2023-04-21T12:38:02.251Z,27.38
2023-04-21T12:40:28.934Z,27.92
2023-04-21T12:42:55.514Z,26.08
2023-04-21T12:45:23.190Z,23.65
2023-04-21T12:47:50.214Z,26.55
2023-04-21T12:50:16.931Z,24.83
2023-04-21T12:52:43.535Z,25.30
2023-04-21T12:55:10.525Z,22.67
2023-04-21T12:57:37.166Z,24.13
2023-04-21T13:00:04.392Z,23.70
2023-04-21T13:02:37.083Z,24.17
2023-04-21T13:05:04.999Z,21.85
2023-04-21T13:07:33.293Z,23.20
2023-04-21T13:10:00.236Z,22.95
2023-04-21T13:12:26.845Z,27.50
2023-04-21T13:14:53.456Z,25.73
2023-04-21T13:17:20.354Z,24.88
2023-04-21T13:19:47.112Z,24.85
2023-04-21T13:22:13.927Z,22.05
2023-04-21T13:24:40.679Z,22.73
2023-04-21T13:27:07.556Z,22.45
2023-04-21T13:29:34.907Z,24.17
2023-04-21T13:32:06.601Z,21.20
2023-04-21T13:34:34.147Z,21.50
2023-04-21T13:37:01.623Z,21.58
2023-04-21T13:39:28.331Z,20.60
2023-04-21T13:41:54.844Z,20.52
2023-04-21T13:44:21.640Z,19.60
2023-04-21T13:46:48.418Z,19.45
2023-04-21T13:49:15.235Z,21.90
2023-04-21T13:51:42.119Z,19.67
2023-04-21T13:54:08.640Z,20.80
2023-04-21T13:56:36.673Z,21.98
2023-04-21T13:59:04.573Z,21.27
2023-04-21T14:01:31.174Z,22.17
2023-04-21T14:03:58.306Z,20.38
2023-04-21T14:06:25.407Z,22.38
2023-04-21T14:08:53.225Z,20.42
2023-04-21T14:11:20.240Z,19.27
2023-04-21T14:14:00.832Z,21.30
2023-04-21T14:16:33.939Z,22.25
2023-04-21T14:19:00.668Z,19.92
2023-04-21T14:21:27.386Z,21.63
2023-04-21T14:23:53.957Z,18.42
2023-04-21T14:26:20.936Z,18.45
2023-04-21T14:28:47.580Z,18.27
2023-04-21T14:31:14.136Z,19.90
2023-04-21T14:33:41.316Z,17.63
2023-04-21T14:36:10.335Z,16.35
2023-04-21T14:38:37.994Z,20.73
2023-04-21T14:41:04.857Z,16.98
2023-04-21T14:43:32.525Z,15.60
2023-04-21T14:45:59.408Z,15.07
2023-04-21T14:48:26.504Z,14.32
2023-04-21T14:50:53.155Z,16.85
2023-04-21T14:53:19.824Z,15.38
2023-04-21T14:55:46.714Z,14.45
2023-04-21T14:58:13.279Z,13.93
2023-04-21T15:00:39.921Z,18.25
2023-04-21T15:03:06.774Z,15.85
2023-04-21T15:05:34.805Z,15.05
2023-04-21T15:08:02.736Z,14.45
2023-04-21T15:10:32.193Z,15.05
2023-04-21T15:12:59.230Z,14.15
2023-04-21T15:15:25.894Z,14.90
2023-04-21T15:17:52.475Z,16.52
2023-04-21T15:20:22.638Z,14.50
2023-04-21T15:22:57.260Z,15.20
2023-04-21T15:25:24.000Z,15.20
2023-04-21T15:27:50.602Z,17.52
2023-04-21T15:30:17.389Z,17.33
2023-04-21T15:32:44.155Z,16.60
2023-04-21T15:35:10.900Z,14.70
2023-04-21T15:37:37.551Z,18.58
2023-04-21T15:40:04.887Z,14.80
2023-04-21T15:42:31.558Z,14.88
2023-04-21T15:44:59.372Z,15.38
2023-04-21T15:47:26.135Z,15.32
2023-04-21T15:49:52.789Z,15.27
2023-04-21T15:52:19.564Z,14.90
2023-04-21T15:54:46.554Z,14.05
2023-04-21T15:57:13.157Z,12.98
2023-04-21T15:59:40.000Z,13.35
2023-04-21T16:02:06.976Z,13.65
2023-04-21T16:04:33.958Z,13.32
2023-04-21T16:07:00.869Z,15.07
2023-04-21T16:09:27.585Z,14.18
2023-04-21T16:11:54.478Z,15.88
2023-04-21T16:14:21.105Z,13.68
2023-04-21T16:16:47.886Z,12.85
2023-04-21T16:19:14.700Z,12.90
2023-04-21T16:21:42.525Z,15.13
2023-04-21T16:24:09.678Z,17.13
2023-04-21T16:26:36.878Z,17.23
2023-04-21T16:29:03.626Z,15.02
2023-04-21T16:31:31.372Z,14.43
2023-04-21T16:34:00.178Z,14.00
2023-04-21T16:36:32.289Z,15.23
2023-04-21T16:38:59.320Z,15.38
2023-04-21T16:41:26.120Z,15.63
2023-04-21T16:43:54.997Z,18.38
2023-04-21T16:46:22.146Z,16.45
2023-04-21T16:48:48.947Z,16.02
2023-04-21T16:51:17.421Z,15.57
2023-04-21T16:53:44.128Z,17.20
2023-04-21T16:56:10.862Z,15.82
2023-04-21T16:58:37.764Z,13.95
2023-04-21T17:01:04.959Z,13.00
2023-04-21T17:03:31.948Z,12.20
2023-04-21T17:05:58.788Z,12.63
2023-04-21T17:08:25.578Z,12.75
2023-04-21T17:10:52.190Z,12.07
2023-04-21T17:13:18.815Z,12.98
2023-04-21T17:15:45.375Z,12.93
2023-04-21T17:18:12.186Z,11.07
2023-04-21T17:21:06.200Z,10.85
2023-04-21T17:23:33.646Z,8.77
2023-04-21T17:26:01.106Z,8.18
2023-04-21T17:28:28.768Z,4.13
2023-04-21T17:31:03.565Z,4.32
2023-04-21T17:33:40.873Z,3.72
2023-04-21T17:36:08.079Z,5.30
2023-04-21T17:38:35.762Z,3.42
2023-04-21T17:41:02.962Z,2.10
2023-04-21T17:43:29.614Z,1.50
2023-04-21T17:45:56.241Z,3.35
2023-04-21T17:48:23.900Z,3.90
2023-04-21T17:50:51.069Z,3.08
2023-04-21T17:53:18.023Z,6.13
2023-04-21T17:55:44.783Z,4.50
2023-04-21T17:58:12.703Z,4.35
2023-04-21T18:00:39.540Z,15.35
2023-04-21T18:03:06.635Z,9.07
2023-04-21T18:05:33.853Z,3.15
2023-04-21T18:08:00.810Z,2.40
2023-04-21T18:10:29.738Z,5.20
2023-04-21T18:12:57.236Z,4.20
2023-04-21T18:15:24.251Z,2.22
2023-04-21T18:17:52.987Z,3.70
2023-04-21T18:20:19.923Z,2.15
2023-04-21T18:22:46.738Z,2.65
2023-04-21T18:25:13.548Z,2.83
2023-04-21T18:27:41.624Z,3.10
2023-04-21T18:30:09.500Z,3.20
2023-04-21T18:32:37.022Z,2.95
2023-04-21T18:35:05.483Z,4.75
2023-04-21T18:37:32.223Z,2.83
2023-04-21T18:39:59.078Z,8.52
2023-04-21T18:42:26.466Z,8.05
2023-04-21T18:44:57.062Z,12.15
2023-04-21T18:47:25.013Z,10.87
2023-04-21T18:49:52.584Z,6.63
2023-04-21T18:52:19.307Z,2.80
2023-04-21T18:54:47.093Z,5.55
2023-04-21T18:57:13.706Z,6.00
2023-04-21T18:59:40.678Z,3.75
2023-04-21T19:02:12.678Z,4.32
2023-04-21T19:04:39.892Z,7.25
2023-04-21T19:07:09.904Z,6.45
2023-04-21T19:09:38.450Z,18.27
2023-04-21T19:12:05.324Z,10.20
2023-04-21T19:14:42.482Z,10.93
2023-04-21T19:17:13.210Z,13.63
2023-04-21T19:19:40.466Z,10.23
2023-04-21T19:22:07.159Z,9.63
2023-04-21T19:24:34.245Z,10.07
2023-04-21T19:27:05.441Z,5.13
2023-04-21T19:29:32.681Z,5.28
2023-04-21T19:31:59.466Z,3.85
2023-04-21T19:34:26.805Z,4.38
2023-04-21T19:36:53.702Z,4.00
2023-04-21T19:39:20.473Z,11.82
2023-04-21T19:41:47.191Z,6.03
2023-04-21T19:44:13.768Z,8.00
2023-04-21T19:46:42.694Z,5.45
2023-04-21T19:49:12.992Z,7.35
2023-04-21T19:51:41.247Z,6.05
2023-04-21T19:54:11.760Z,5.07
2023-04-21T19:56:39.465Z,7.45
2023-04-21T19:59:07.587Z,7.88
2023-04-21T20:01:35.465Z,7.38
2023-04-21T20:04:03.245Z,7.43
2023-04-21T20:06:30.491Z,8.48
2023-04-21T20:08:57.055Z,6.50
2023-04-21T20:11:23.807Z,7.47
2023-04-21T20:13:50.606Z,16.25
2023-04-21T20:16:20.103Z,20.83
2023-04-21T20:18:47.067Z,10.52
2023-04-21T20:21:14.832Z,9.00
2023-04-21T20:23:41.402Z,7.07
2023-04-21T20:26:08.062Z,4.65
2023-04-21T20:28:36.436Z,5.40
2023-04-21T20:31:04.488Z,6.97
2023-04-21T20:33:31.233Z,6.05
2023-04-21T20:35:57.831Z,8.38
2023-04-21T20:38:24.591Z,6.22
2023-04-21T20:40:52.312Z,6.45
2023-04-21T20:43:18.926Z,8.07
2023-04-21T20:45:47.258Z,4.95
2023-04-21T20:48:13.998Z,5.15
2023-04-21T20:50:41.024Z,5.55
2023-04-21T20:53:08.814Z,6.20
2023-04-21T20:55:38.125Z,6.05
2023-04-21T20:58:05.005Z,6.38
2023-04-21T21:00:34.178Z,5.07
2023-04-21T21:03:02.144Z,4.60
2023-04-21T21:05:33.160Z,5.78
2023-04-21T21:07:59.916Z,10.55
2023-04-21T21:10:26.813Z,11.27
2023-04-21T21:12:53.459Z,7.63
2023-04-21T21:15:20.096Z,9.93
2023-04-21T21:17:46.828Z,6.13
2023-04-21T21:20:13.609Z,6.88
2023-04-21T21:22:40.295Z,8.32
2023-04-21T21:25:07.244Z,7.20
2023-04-21T21:27:34.105Z,6.30
2023-04-21T21:30:00.690Z,6.13
2023-04-21T21:32:27.297Z,6.35
2023-04-21T21:34:53.949Z,5.30
2023-04-21T21:37:21.237Z,6.55
2023-04-21T21:39:48.023Z,5.03
2023-04-21T21:42:14.563Z,5.38
2023-04-21T21:44:41.204Z,4.75
2023-04-21T21:47:07.898Z,7.90
2023-04-21T21:49:38.323Z,6.07
2023-04-21T21:56:16.544Z,5.80
2023-04-21T21:58:44.200Z,6.72
2023-04-21T22:01:11.555Z,4.90
2023-04-21T22:03:38.254Z,4.85
2023-04-21T22:06:09.988Z,4.60
2023-04-21T22:08:42.335Z,4.20
2023-04-21T22:11:09.858Z,4.30
2023-04-21T22:13:37.570Z,4.25
2023-04-21T22:16:04.337Z,5.22
2023-04-21T22:18:31.087Z,4.20
2023-04-21T22:20:59.010Z,4.85
2023-04-21T22:23:26.092Z,4.15
2023-04-21T22:25:52.698Z,4.95
2023-04-21T22:28:20.452Z,5.18
2023-04-21T22:30:48.187Z,4.05
2023-04-21T22:33:14.905Z,6.72
2023-04-21T22:35:42.583Z,3.85
2023-04-21T22:38:09.197Z,4.15
2023-04-21T22:40:37.818Z,5.53
2023-04-21T22:43:05.268Z,4.70
2023-04-21T22:45:35.504Z,5.45
2023-04-21T22:48:02.356Z,5.13
2023-04-21T22:50:36.183Z,6.40
2023-04-21T22:53:05.871Z,6.35
2023-04-21T22:55:32.492Z,5.78
2023-04-21T22:57:59.845Z,6.05
2023-04-21T23:00:26.832Z,6.18
2023-04-21T23:02:53.601Z,5.50
2023-04-21T23:05:20.521Z,4.82
2023-04-21T23:07:47.307Z,5.28
2023-04-21T23:10:13.948Z,7.80
2023-04-21T23:12:40.688Z,6.78
2023-04-21T23:15:07.582Z,5.85
2023-04-21T23:17:34.385Z,5.85
2023-04-21T23:20:05.112Z,5.25
2023-04-21T23:22:32.233Z,6.32
2023-04-21T23:24:58.907Z,6.97
2023-04-21T23:27:25.548Z,6.43
2023-04-21T23:29:55.415Z,5.82
2023-04-21T23:32:22.258Z,7.40
2023-04-21T23:34:48.896Z,5.80
2023-04-21T23:37:15.492Z,6.18
2023-04-21T23:39:42.109Z,5.75
2023-04-21T23:42:09.375Z,6.43
2023-04-21T23:44:37.327Z,6.38
2023-04-21T23:47:04.188Z,7.47
2023-04-21T23:49:30.818Z,5.65
2023-04-21T23:51:57.433Z,5.43
2023-04-21T23:54:24.695Z,5.32
2023-04-21T23:56:52.204Z,5.10
2023-04-21T23:59:18.818Z,4.95
